createdAt,value
2018-01-24T00:00:29.588Z,0.00
2018-01-24T00:01:29.583Z,0.00
2018-01-24T00:02:29.485Z,0.00
2018-01-24T00:03:29.448Z,0.00
2018-01-24T00:04:29.420Z,0.00
2018-01-24T00:05:29.363Z,0.00
2018-01-24T00:06:29.323Z,0.00
2018-01-24T00:07:29.291Z,0.00
2018-01-24T00:08:29.243Z,0.00
2018-01-24T00:09:29.205Z,0.00
2018-01-24T00:10:29.174Z,0.00
2018-01-24T00:11:29.133Z,0.00
2018-01-24T00:12:29.083Z,0.00
2018-01-24T00:13:29.043Z,0.00
2018-01-24T00:14:29.002Z,0.00
2018-01-24T00:15:28.974Z,0.00
2018-01-24T00:16:28.939Z,0.00
2018-01-24T00:17:28.887Z,0.00
2018-01-24T00:18:28.840Z,0.00
2018-01-24T00:19:28.798Z,0.00
2018-01-24T00:20:28.759Z,0.00
2018-01-24T00:21:28.717Z,0.00
2018-01-24T00:22:28.679Z,0.00
2018-01-24T00:23:28.635Z,0.00
2018-01-24T00:24:28.596Z,0.00
2018-01-24T00:25:28.557Z,0.00
2018-01-24T00:26:28.514Z,0.00
2018-01-24T00:27:28.477Z,0.00
2018-01-24T00:28:28.437Z,0.00
2018-01-24T00:29:28.394Z,0.00
2018-01-24T00:30:28.356Z,0.00
2018-01-24T00:31:28.316Z,0.00
2018-01-24T00:32:28.274Z,0.00
2018-01-24T00:33:28.233Z,0.00
2018-01-24T00:34:28.191Z,0.00
2018-01-24T00:35:28.152Z,0.00
2018-01-24T00:36:28.112Z,0.00
2018-01-24T00:37:28.071Z,0.00
2018-01-24T00:38:28.034Z,0.00
2018-01-24T00:39:27.988Z,0.00
2018-01-24T00:40:27.947Z,0.00
2018-01-24T00:41:27.909Z,0.00
2018-01-24T00:42:27.869Z,0.00
2018-01-24T00:43:27.828Z,0.00
2018-01-24T00:44:27.787Z,0.00
2018-01-24T00:45:27.746Z,0.00
2018-01-24T00:46:27.707Z,0.00
2018-01-24T00:47:27.667Z,0.00
2018-01-24T00:48:27.625Z,0.00
2018-01-24T00:49:27.585Z,0.00
2018-01-24T00:50:27.543Z,0.00
2018-01-24T00:51:27.504Z,0.00
2018-01-24T00:52:27.462Z,0.00
2018-01-24T00:53:27.423Z,0.00
2018-01-24T00:54:27.381Z,0.00
2018-01-24T00:55:27.342Z,0.00
2018-01-24T00:56:27.302Z,0.00
2018-01-24T00:57:27.265Z,0.00
2018-01-24T00:58:27.220Z,0.00
2018-01-24T00:59:27.180Z,0.00
2018-01-24T01:00:27.140Z,0.00
2018-01-24T01:01:27.101Z,0.00
2018-01-24T01:02:27.058Z,0.00
2018-01-24T01:03:27.017Z,0.00
2018-01-24T01:04:26.984Z,0.00
2018-01-24T01:05:26.937Z,0.00
2018-01-24T01:06:26.896Z,0.00
2018-01-24T01:07:26.856Z,0.00
2018-01-24T01:08:26.814Z,0.00
2018-01-24T01:09:26.780Z,0.00
2018-01-24T01:10:26.737Z,0.00
2018-01-24T01:11:26.709Z,0.00
2018-01-24T01:12:26.658Z,0.00
2018-01-24T01:13:26.617Z,0.00
2018-01-24T01:14:26.571Z,0.00
2018-01-24T01:15:26.533Z,0.00
2018-01-24T01:16:26.503Z,0.00
2018-01-24T01:17:26.450Z,0.00
2018-01-24T01:18:26.410Z,0.00
2018-01-24T01:19:26.380Z,0.00
2018-01-24T01:20:26.329Z,0.00
2018-01-24T01:21:26.287Z,0.00
2018-01-24T01:22:26.246Z,0.00
2018-01-24T01:23:26.209Z,0.00
2018-01-24T01:24:26.166Z,0.00
2018-01-24T01:25:26.127Z,0.00
2018-01-24T01:26:26.083Z,0.00
2018-01-24T01:27:26.045Z,0.00
2018-01-24T01:28:26.011Z,0.00
2018-01-24T01:29:25.963Z,0.00
2018-01-24T01:30:25.925Z,0.00
2018-01-24T01:31:25.891Z,0.00
2018-01-24T01:32:25.841Z,0.00
2018-01-24T01:33:25.804Z,0.00
2018-01-24T01:34:25.760Z,0.00
2018-01-24T01:35:25.722Z,0.00
2018-01-24T01:36:25.683Z,0.00
2018-01-24T01:37:25.640Z,0.00
2018-01-24T01:38:25.600Z,0.00
2018-01-24T01:39:25.565Z,0.00
2018-01-24T01:40:25.526Z,0.00
2018-01-24T01:41:25.488Z,0.00
2018-01-24T01:42:25.440Z,0.00
2018-01-24T01:43:25.396Z,0.00
2018-01-24T01:44:25.358Z,0.00
2018-01-24T01:45:25.321Z,0.00
2018-01-24T01:46:25.304Z,0.00
2018-01-24T01:47:25.233Z,0.00
2018-01-24T01:48:25.201Z,0.00
2018-01-24T01:49:25.166Z,0.00
2018-01-24T01:50:25.117Z,0.00
2018-01-24T01:51:25.076Z,0.00
2018-01-24T01:52:25.031Z,0.00
2018-01-24T01:53:25.021Z,0.00
2018-01-24T01:54:24.952Z,0.00
2018-01-24T01:55:24.911Z,0.00
2018-01-24T01:56:24.869Z,0.00
2018-01-24T01:57:24.834Z,0.00
2018-01-24T01:58:24.787Z,0.00
2018-01-24T01:59:24.748Z,0.00
2018-01-24T02:00:24.710Z,0.00
2018-01-24T02:01:24.677Z,0.00
2018-01-24T02:02:24.630Z,0.00
2018-01-24T02:03:24.586Z,0.00
2018-01-24T02:04:24.549Z,0.00
2018-01-24T02:05:24.506Z,0.00
2018-01-24T02:06:24.479Z,0.00
2018-01-24T02:07:24.428Z,0.00
2018-01-24T02:08:24.383Z,0.00
2018-01-24T02:09:24.346Z,0.00
2018-01-24T02:10:24.322Z,0.00
2018-01-24T02:11:24.266Z,0.00
2018-01-24T02:12:24.226Z,0.00
2018-01-24T02:13:24.182Z,0.00
2018-01-24T02:14:24.144Z,0.00
2018-01-24T02:15:24.101Z,0.00
2018-01-24T02:16:24.062Z,0.00
2018-01-24T02:17:24.021Z,0.00
2018-01-24T02:18:23.978Z,0.00
2018-01-24T02:19:23.939Z,0.00
2018-01-24T02:20:23.901Z,0.00
2018-01-24T02:21:23.858Z,0.00
2018-01-24T02:22:23.818Z,0.00
2018-01-24T02:23:23.779Z,0.00
2018-01-24T02:24:23.738Z,0.00
2018-01-24T02:25:23.698Z,0.00
2018-01-24T02:26:23.676Z,0.00
2018-01-24T02:27:23.617Z,0.00
2018-01-24T02:28:23.577Z,0.00
2018-01-24T02:29:23.536Z,0.00
2018-01-24T02:30:23.496Z,0.00
2018-01-24T02:31:23.517Z,0.00
2018-01-24T02:32:23.418Z,0.00
2018-01-24T02:33:23.375Z,0.00
2018-01-24T02:34:23.334Z,0.00
2018-01-24T02:35:23.305Z,0.00
2018-01-24T02:36:23.255Z,0.00
2018-01-24T02:37:23.214Z,0.00
2018-01-24T02:38:23.180Z,0.00
2018-01-24T02:39:23.133Z,0.00
2018-01-24T02:40:23.095Z,0.00
2018-01-24T02:41:23.054Z,0.00
2018-01-24T02:42:23.023Z,0.00
2018-01-24T02:43:22.974Z,0.00
2018-01-24T02:44:22.932Z,0.00
2018-01-24T02:45:22.895Z,0.00
2018-01-24T02:46:22.849Z,0.00
2018-01-24T02:47:22.811Z,0.00
2018-01-24T02:48:22.771Z,0.00
2018-01-24T02:49:22.729Z,0.00
2018-01-24T02:50:22.691Z,0.00
2018-01-24T02:51:22.661Z,0.00
2018-01-24T02:52:22.609Z,0.00
2018-01-24T02:53:22.615Z,0.00
2018-01-24T02:54:22.529Z,0.00
2018-01-24T02:55:22.488Z,0.00
2018-01-24T02:56:22.450Z,0.00
2018-01-24T02:57:22.409Z,0.00
2018-01-24T02:58:22.368Z,0.00
2018-01-24T02:59:22.328Z,0.00
2018-01-24T03:00:22.286Z,0.00
2018-01-24T03:01:22.247Z,0.00
2018-01-24T03:02:22.204Z,0.00
2018-01-24T03:03:22.167Z,0.00
2018-01-24T03:04:22.129Z,0.00
2018-01-24T03:05:22.089Z,0.00
2018-01-24T03:06:22.048Z,0.00
2018-01-24T03:07:22.020Z,0.00
2018-01-24T03:08:21.966Z,0.00
2018-01-24T03:09:21.927Z,0.00
2018-01-24T03:10:21.886Z,0.00
2018-01-24T03:11:21.847Z,0.00
2018-01-24T03:12:21.806Z,0.00
2018-01-24T03:13:21.767Z,0.00
2018-01-24T03:14:21.726Z,0.00
2018-01-24T03:15:21.697Z,0.00
2018-01-24T03:16:21.660Z,0.00
2018-01-24T03:17:21.605Z,0.00
2018-01-24T03:18:21.565Z,0.00
2018-01-24T03:19:21.524Z,0.00
2018-01-24T03:20:21.494Z,0.00
2018-01-24T03:21:21.444Z,0.00
2018-01-24T03:22:21.404Z,0.00
2018-01-24T03:23:21.362Z,0.00
2018-01-24T03:24:21.325Z,0.00
2018-01-24T03:25:21.285Z,0.00
2018-01-24T03:26:21.244Z,0.00
2018-01-24T03:27:21.203Z,0.00
2018-01-24T03:28:21.164Z,0.00
2018-01-24T03:29:21.125Z,0.00
2018-01-24T03:30:21.083Z,0.00
2018-01-24T03:31:21.042Z,0.00
2018-01-24T03:32:21.004Z,0.00
2018-01-24T03:33:20.963Z,0.00
2018-01-24T03:34:20.924Z,0.00
2018-01-24T03:35:20.900Z,0.00
2018-01-24T03:36:20.844Z,0.00
2018-01-24T03:37:20.802Z,0.00
2018-01-24T03:38:20.770Z,0.00
2018-01-24T03:39:20.731Z,0.00
2018-01-24T03:40:20.685Z,0.00
2018-01-24T03:41:20.683Z,0.00
2018-01-24T03:42:20.602Z,0.00
2018-01-24T03:43:20.562Z,0.00
2018-01-24T03:44:20.525Z,0.00
2018-01-24T03:45:20.487Z,0.00
2018-01-24T03:46:20.444Z,0.00
2018-01-24T03:47:20.402Z,0.00
2018-01-24T03:48:20.372Z,0.00
2018-01-24T03:49:20.323Z,0.00
2018-01-24T03:50:20.292Z,0.00
2018-01-24T03:51:20.243Z,0.00
2018-01-24T03:52:20.205Z,0.00
2018-01-24T03:53:20.163Z,0.00
2018-01-24T03:54:20.124Z,0.00
2018-01-24T03:55:20.086Z,0.00
2018-01-24T03:56:20.050Z,0.00
2018-01-24T03:57:20.003Z,0.00
2018-01-24T03:58:19.978Z,0.00
2018-01-24T03:59:19.928Z,0.00
2018-01-24T04:00:19.881Z,0.00
2018-01-24T04:01:19.841Z,0.00
2018-01-24T04:02:19.801Z,0.00
2018-01-24T04:03:19.764Z,0.00
2018-01-24T04:04:19.723Z,0.00
2018-01-24T04:05:19.688Z,0.00
2018-01-24T04:06:19.646Z,0.00
2018-01-24T04:07:19.621Z,0.00
2018-01-24T04:08:19.573Z,0.00
2018-01-24T04:09:19.535Z,0.00
2018-01-24T04:10:19.481Z,0.00
2018-01-24T04:11:19.446Z,0.00
2018-01-24T04:12:19.413Z,0.00
2018-01-24T04:13:19.363Z,0.00
2018-01-24T04:14:19.324Z,0.00
2018-01-24T04:15:19.285Z,0.00
2018-01-24T04:16:19.243Z,0.00
2018-01-24T04:17:19.204Z,0.00
2018-01-24T04:18:19.162Z,0.00
2018-01-24T04:19:19.124Z,0.00
2018-01-24T04:20:19.085Z,0.00
2018-01-24T04:21:19.046Z,0.00
2018-01-24T04:22:19.010Z,0.00
2018-01-24T04:23:18.964Z,0.00
2018-01-24T04:24:18.925Z,0.00
2018-01-24T04:25:18.885Z,0.00
2018-01-24T04:26:18.844Z,0.00
2018-01-24T04:27:18.804Z,0.00
2018-01-24T04:28:18.775Z,0.00
2018-01-24T04:29:18.725Z,0.00
2018-01-24T04:30:18.686Z,0.00
2018-01-24T04:31:18.645Z,0.00
2018-01-24T04:32:18.606Z,0.00
2018-01-24T04:33:18.572Z,0.00
2018-01-24T04:34:18.558Z,0.00
2018-01-24T04:35:18.494Z,0.00
2018-01-24T04:36:18.447Z,0.00
2018-01-24T04:37:18.414Z,0.00
2018-01-24T04:38:18.365Z,0.00
2018-01-24T04:39:18.326Z,0.00
2018-01-24T04:40:18.285Z,0.00
2018-01-24T04:41:18.250Z,0.00
2018-01-24T04:42:18.210Z,0.00
2018-01-24T04:43:18.169Z,0.00
2018-01-24T04:44:18.134Z,0.00
2018-01-24T04:45:18.094Z,0.00
2018-01-24T04:46:18.047Z,0.00
2018-01-24T04:47:18.009Z,0.00
2018-01-24T04:48:17.970Z,0.00
2018-01-24T04:49:17.931Z,0.00
2018-01-24T04:50:17.897Z,0.00
2018-01-24T04:51:17.855Z,0.00
2018-01-24T04:52:17.816Z,0.00
2018-01-24T04:53:17.771Z,0.00
2018-01-24T04:54:17.730Z,0.00
2018-01-24T04:55:17.690Z,0.00
2018-01-24T04:56:17.657Z,0.00
2018-01-24T04:57:17.611Z,0.00
2018-01-24T04:58:17.571Z,0.00
2018-01-24T04:59:17.548Z,0.00
2018-01-24T05:00:17.501Z,0.00
2018-01-24T05:01:17.453Z,0.00
2018-01-24T05:02:17.414Z,0.00
2018-01-24T05:03:17.373Z,0.00
2018-01-24T05:04:17.342Z,0.00
2018-01-24T05:05:17.294Z,0.00
2018-01-24T05:06:17.254Z,0.00
2018-01-24T05:07:17.216Z,0.00
2018-01-24T05:08:17.176Z,0.00
2018-01-24T05:09:17.144Z,0.00
2018-01-24T05:10:17.107Z,0.00
2018-01-24T05:11:17.057Z,0.00
2018-01-24T05:12:17.020Z,0.00
2018-01-24T05:13:16.980Z,0.00
2018-01-24T05:14:16.938Z,0.00
2018-01-24T05:15:16.916Z,0.00
2018-01-24T05:16:16.872Z,0.00
2018-01-24T05:17:16.827Z,0.00
2018-01-24T05:18:16.779Z,0.00
2018-01-24T05:19:16.739Z,0.00
2018-01-24T05:20:16.714Z,0.00
2018-01-24T05:21:16.661Z,0.00
2018-01-24T05:22:16.620Z,0.00
2018-01-24T05:23:16.588Z,0.00
2018-01-24T05:24:16.559Z,0.00
2018-01-24T05:25:16.521Z,0.00
2018-01-24T05:26:16.476Z,0.00
2018-01-24T05:27:16.424Z,0.00
2018-01-24T05:28:16.383Z,0.00
2018-01-24T05:29:16.348Z,0.00
2018-01-24T05:30:16.304Z,0.00
2018-01-24T05:31:16.274Z,0.00
2018-01-24T05:32:16.229Z,0.00
2018-01-24T05:33:16.218Z,0.00
2018-01-24T05:34:16.152Z,0.00
2018-01-24T05:35:16.110Z,0.00
2018-01-24T05:36:16.069Z,0.00
2018-01-24T05:37:16.029Z,0.00
2018-01-24T05:38:15.989Z,0.00
2018-01-24T05:39:15.950Z,0.00
2018-01-24T05:40:15.911Z,0.00
2018-01-24T05:41:15.880Z,0.00
2018-01-24T05:42:15.830Z,0.00
2018-01-24T05:43:15.799Z,0.00
2018-01-24T05:44:15.752Z,0.00
2018-01-24T05:45:15.714Z,0.00
2018-01-24T05:46:15.673Z,0.00
2018-01-24T05:47:15.635Z,0.00
2018-01-24T05:48:15.595Z,0.00
2018-01-24T05:49:15.609Z,0.00
2018-01-24T05:50:15.514Z,0.00
2018-01-24T05:51:15.475Z,0.00
2018-01-24T05:52:15.438Z,0.00
2018-01-24T05:53:15.397Z,0.00
2018-01-24T05:54:15.358Z,0.00
2018-01-24T05:55:15.320Z,0.00
2018-01-24T05:56:15.279Z,0.00
2018-01-24T05:57:15.243Z,0.00
2018-01-24T05:58:15.206Z,0.00
2018-01-24T05:59:15.162Z,0.00
2018-01-24T06:00:15.122Z,0.00
2018-01-24T06:01:15.093Z,0.00
2018-01-24T06:02:15.043Z,0.00
2018-01-24T06:03:15.003Z,0.00
2018-01-24T06:04:14.967Z,0.00
2018-01-24T06:05:14.924Z,0.00
2018-01-24T06:06:14.889Z,0.00
2018-01-24T06:07:14.853Z,0.00
2018-01-24T06:08:14.806Z,0.00
2018-01-24T06:09:14.767Z,0.00
2018-01-24T06:10:14.741Z,0.00
2018-01-24T06:11:14.690Z,0.00
2018-01-24T06:12:14.677Z,0.00
2018-01-24T06:13:14.662Z,0.00
2018-01-24T06:14:14.578Z,0.00
2018-01-24T06:15:14.574Z,0.00
2018-01-24T06:16:14.527Z,0.00
2018-01-24T06:17:14.500Z,0.00
2018-01-24T06:18:14.454Z,0.00
2018-01-24T06:19:14.380Z,0.00
2018-01-24T06:20:14.336Z,0.00
2018-01-24T06:21:14.296Z,0.00
2018-01-24T06:22:14.260Z,0.00
2018-01-24T06:23:14.218Z,0.00
2018-01-24T06:24:14.177Z,0.00
2018-01-24T06:25:14.140Z,0.00
2018-01-24T06:26:14.110Z,0.00
2018-01-24T06:27:14.062Z,0.00
2018-01-24T06:28:14.023Z,0.00
2018-01-24T06:29:13.991Z,0.00
2018-01-24T06:30:13.943Z,0.00
2018-01-24T06:31:13.904Z,0.00
2018-01-24T06:32:13.868Z,0.00
2018-01-24T06:33:13.827Z,0.00
2018-01-24T06:34:13.783Z,0.00
2018-01-24T06:35:13.931Z,0.00
2018-01-24T06:36:13.753Z,0.00
2018-01-24T06:37:13.712Z,0.00
2018-01-24T06:38:13.626Z,0.00
2018-01-24T06:39:13.587Z,0.00
2018-01-24T06:40:13.557Z,0.00
2018-01-24T06:41:13.563Z,0.00
2018-01-24T06:42:13.509Z,0.00
2018-01-24T06:43:13.434Z,0.00
2018-01-24T06:44:13.403Z,0.00
2018-01-24T06:45:13.351Z,0.00
2018-01-24T06:46:13.329Z,0.00
2018-01-24T06:47:13.275Z,0.00
2018-01-24T06:48:13.236Z,0.00
2018-01-24T06:49:13.198Z,0.00
2018-01-24T06:50:13.167Z,0.00
2018-01-24T06:51:13.117Z,0.00
2018-01-24T06:52:13.077Z,0.00
2018-01-24T06:53:13.042Z,0.00
2018-01-24T06:54:13.016Z,0.00
2018-01-24T06:55:12.964Z,0.00
2018-01-24T06:56:12.953Z,0.00
2018-01-24T06:57:12.890Z,0.00
2018-01-24T06:58:12.843Z,0.00
2018-01-24T06:59:12.815Z,0.00
2018-01-24T07:00:12.776Z,0.00
2018-01-24T07:01:12.733Z,0.00
2018-01-24T07:02:12.685Z,0.00
2018-01-24T07:03:12.648Z,0.00
2018-01-24T07:04:12.633Z,0.00
2018-01-24T07:05:12.576Z,0.00
2018-01-24T07:06:12.531Z,5.63
2018-01-24T07:07:12.492Z,5.63
2018-01-24T07:08:12.476Z,5.63
2018-01-24T07:09:12.414Z,5.63
2018-01-24T07:10:12.371Z,5.63
2018-01-24T07:11:14.053Z,5.63
2018-01-24T07:12:12.294Z,5.63
2018-01-24T07:13:12.255Z,5.63
2018-01-24T07:14:12.235Z,5.63
2018-01-24T07:15:12.176Z,11.25
2018-01-24T07:16:12.139Z,11.25
2018-01-24T07:17:12.099Z,11.25
2018-01-24T07:18:12.058Z,11.25
2018-01-24T07:19:12.020Z,11.25
2018-01-24T07:20:11.980Z,11.25
2018-01-24T07:21:11.941Z,16.88
2018-01-24T07:22:11.908Z,16.88
2018-01-24T07:23:11.864Z,16.88
2018-01-24T07:24:11.828Z,16.88
2018-01-24T07:25:11.787Z,22.50
2018-01-24T07:26:11.746Z,16.88
2018-01-24T07:27:11.707Z,22.50
2018-01-24T07:28:11.669Z,22.50
2018-01-24T07:29:11.637Z,22.50
2018-01-24T07:30:11.588Z,28.13
2018-01-24T07:31:11.551Z,28.13
2018-01-24T07:32:11.513Z,28.13
2018-01-24T07:33:11.476Z,28.13
2018-01-24T07:34:11.431Z,33.75
2018-01-24T07:35:11.402Z,39.38
2018-01-24T07:36:11.358Z,39.38
2018-01-24T07:37:11.316Z,45.00
2018-01-24T07:38:11.275Z,50.63
2018-01-24T07:39:11.243Z,50.63
2018-01-24T07:40:11.199Z,56.25
2018-01-24T07:41:11.163Z,56.25
2018-01-24T07:42:11.128Z,56.25
2018-01-24T07:43:11.083Z,61.88
2018-01-24T07:44:11.054Z,61.88
2018-01-24T07:45:11.006Z,56.25
2018-01-24T07:46:10.969Z,56.25
2018-01-24T07:47:10.958Z,50.63
2018-01-24T07:48:10.894Z,50.63
2018-01-24T07:49:10.852Z,45.00
2018-01-24T07:50:10.822Z,45.00
2018-01-24T07:51:10.792Z,45.00
2018-01-24T07:52:10.748Z,50.63
2018-01-24T07:53:10.695Z,50.63
2018-01-24T07:54:10.662Z,50.63
2018-01-24T07:55:10.643Z,50.63
2018-01-24T07:56:10.596Z,50.63
2018-01-24T07:57:10.544Z,50.63
2018-01-24T07:58:10.514Z,50.63
2018-01-24T07:59:10.468Z,50.63
2018-01-24T08:00:10.424Z,50.63
2018-01-24T08:01:10.385Z,56.25
2018-01-24T08:02:10.352Z,56.25
2018-01-24T08:03:10.442Z,61.88
2018-01-24T08:04:10.273Z,61.88
2018-01-24T08:05:10.241Z,67.50
2018-01-24T08:06:10.206Z,73.13
2018-01-24T08:07:10.156Z,73.13
2018-01-24T08:08:10.116Z,78.75
2018-01-24T08:09:10.092Z,90.00
2018-01-24T08:10:10.062Z,101.25
2018-01-24T08:11:10.010Z,118.13
2018-01-24T08:12:09.962Z,123.75
2018-01-24T08:13:09.921Z,129.38
2018-01-24T08:14:09.884Z,140.63
2018-01-24T08:15:09.848Z,151.88
2018-01-24T08:16:09.808Z,157.50
2018-01-24T08:17:09.775Z,163.13
2018-01-24T08:18:09.730Z,174.38
2018-01-24T08:19:09.690Z,185.63
2018-01-24T08:20:09.657Z,196.88
2018-01-24T08:21:09.615Z,208.13
2018-01-24T08:22:09.577Z,219.38
2018-01-24T08:23:09.542Z,225.00
2018-01-24T08:24:09.511Z,236.25
2018-01-24T08:25:09.462Z,247.50
2018-01-24T08:26:09.423Z,270.00
2018-01-24T08:27:09.393Z,281.25
2018-01-24T08:28:09.351Z,281.25
2018-01-24T08:29:09.308Z,286.88
2018-01-24T08:30:09.270Z,298.13
2018-01-24T08:31:09.238Z,303.75
2018-01-24T08:32:09.193Z,303.75
2018-01-24T08:33:09.153Z,309.38
2018-01-24T08:34:09.123Z,298.13
2018-01-24T08:35:09.078Z,298.13
2018-01-24T08:36:09.040Z,298.13
2018-01-24T08:37:09.002Z,298.13
2018-01-24T08:38:08.963Z,298.13
2018-01-24T08:39:08.936Z,292.50
2018-01-24T08:40:08.889Z,286.88
2018-01-24T08:41:08.851Z,292.50
2018-01-24T08:42:08.810Z,292.50
2018-01-24T08:43:08.773Z,292.50
2018-01-24T08:44:08.745Z,303.75
2018-01-24T08:45:08.698Z,309.38
2018-01-24T08:46:08.676Z,303.75
2018-01-24T08:47:08.629Z,298.13
2018-01-24T08:48:08.594Z,298.13
2018-01-24T08:49:08.547Z,298.13
2018-01-24T08:50:08.525Z,292.50
2018-01-24T08:51:08.469Z,303.75
2018-01-24T08:52:08.435Z,303.75
2018-01-24T08:53:08.395Z,303.75
2018-01-24T08:54:08.354Z,303.75
2018-01-24T08:55:08.319Z,315.00
2018-01-24T08:56:08.279Z,309.38
2018-01-24T08:57:08.245Z,315.00
2018-01-24T08:58:08.204Z,320.63
2018-01-24T08:59:08.173Z,315.00
2018-01-24T09:00:08.128Z,303.75
2018-01-24T09:01:08.091Z,315.00
2018-01-24T09:02:08.065Z,315.00
2018-01-24T09:03:08.016Z,315.00
2018-01-24T09:04:08.036Z,320.63
2018-01-24T09:05:07.942Z,326.25
2018-01-24T09:06:07.915Z,326.25
2018-01-24T09:07:07.863Z,320.63
2018-01-24T09:08:07.825Z,326.25
2018-01-24T09:09:07.791Z,331.88
2018-01-24T09:10:07.750Z,331.88
2018-01-24T09:11:07.713Z,343.13
2018-01-24T09:12:07.689Z,354.38
2018-01-24T09:13:07.639Z,360.00
2018-01-24T09:14:07.608Z,365.63
2018-01-24T09:15:07.571Z,320.63
2018-01-24T09:16:07.555Z,343.13
2018-01-24T09:17:07.507Z,343.13
2018-01-24T09:18:07.475Z,337.50
2018-01-24T09:19:07.417Z,343.13
2018-01-24T09:20:07.392Z,343.13
2018-01-24T09:21:07.350Z,331.88
2018-01-24T09:22:07.313Z,337.50
2018-01-24T09:23:07.385Z,337.50
2018-01-24T09:24:07.248Z,331.88
2018-01-24T09:25:07.192Z,320.63
2018-01-24T09:26:07.184Z,303.75
2018-01-24T09:27:07.111Z,309.38
2018-01-24T09:28:07.076Z,315.00
2018-01-24T09:29:07.050Z,320.63
2018-01-24T09:30:07.040Z,320.63
2018-01-24T09:31:06.973Z,315.00
2018-01-24T09:32:06.932Z,315.00
2018-01-24T09:33:06.919Z,326.25
2018-01-24T09:34:06.849Z,343.13
2018-01-24T09:35:06.817Z,365.63
2018-01-24T09:36:06.786Z,376.88
2018-01-24T09:37:06.769Z,376.88
2018-01-24T09:38:06.699Z,399.38
2018-01-24T09:39:06.668Z,399.38
2018-01-24T09:40:06.631Z,393.75
2018-01-24T09:41:06.597Z,405.00
2018-01-24T09:42:06.553Z,388.13
2018-01-24T09:43:06.514Z,382.50
2018-01-24T09:44:06.487Z,382.50
2018-01-24T09:45:06.442Z,382.50
2018-01-24T09:46:06.412Z,382.50
2018-01-24T09:47:06.365Z,382.50
2018-01-24T09:48:06.332Z,393.75
2018-01-24T09:49:06.292Z,399.38
2018-01-24T09:50:06.259Z,410.63
2018-01-24T09:51:06.217Z,393.75
2018-01-24T09:52:06.182Z,376.88
2018-01-24T09:53:06.146Z,365.63
2018-01-24T09:54:06.115Z,354.38
2018-01-24T09:55:06.069Z,354.38
2018-01-24T09:56:06.037Z,354.38
2018-01-24T09:57:05.996Z,354.38
2018-01-24T09:58:05.960Z,354.38
2018-01-24T09:59:05.922Z,360.00
2018-01-24T10:00:05.894Z,354.38
2018-01-24T10:01:05.869Z,360.00
2018-01-24T10:02:05.812Z,354.38
2018-01-24T10:03:05.787Z,354.38
2018-01-24T10:04:05.741Z,343.13
2018-01-24T10:05:05.707Z,343.13
2018-01-24T10:06:05.678Z,343.13
2018-01-24T10:07:05.629Z,354.38
2018-01-24T10:08:05.594Z,360.00
2018-01-24T10:09:05.555Z,371.25
2018-01-24T10:10:05.517Z,382.50
2018-01-24T10:11:05.485Z,388.13
2018-01-24T10:12:05.453Z,399.38
2018-01-24T10:13:05.408Z,405.00
2018-01-24T10:14:05.372Z,399.38
2018-01-24T10:15:05.337Z,410.63
2018-01-24T10:16:05.388Z,416.25
2018-01-24T10:17:05.264Z,433.13
2018-01-24T10:18:05.224Z,433.13
2018-01-24T10:19:05.191Z,444.38
2018-01-24T10:20:05.152Z,450.00
2018-01-24T10:21:05.117Z,455.63
2018-01-24T10:22:05.082Z,455.63
2018-01-24T10:23:05.045Z,455.63
2018-01-24T10:24:05.011Z,455.63
2018-01-24T10:25:05.016Z,461.25
2018-01-24T10:26:04.944Z,461.25
2018-01-24T10:27:04.906Z,466.88
2018-01-24T10:28:04.926Z,461.25
2018-01-24T10:29:04.831Z,461.25
2018-01-24T10:30:04.837Z,455.63
2018-01-24T10:31:04.754Z,455.63
2018-01-24T10:32:04.729Z,461.25
2018-01-24T10:33:04.682Z,450.00
2018-01-24T10:34:04.644Z,450.00
2018-01-24T10:35:04.617Z,444.38
2018-01-24T10:36:04.585Z,444.38
2018-01-24T10:37:04.540Z,438.75
2018-01-24T10:38:04.508Z,433.13
2018-01-24T10:39:04.464Z,433.13
2018-01-24T10:40:04.427Z,427.50
2018-01-24T10:41:04.392Z,427.50
2018-01-24T10:42:04.372Z,438.75
2018-01-24T10:43:04.324Z,438.75
2018-01-24T10:44:04.290Z,438.75
2018-01-24T10:45:04.248Z,438.75
2018-01-24T10:46:04.211Z,438.75
2018-01-24T10:47:04.177Z,433.13
2018-01-24T10:48:04.163Z,433.13
2018-01-24T10:49:04.112Z,421.88
2018-01-24T10:50:04.066Z,410.63
2018-01-24T10:51:04.029Z,410.63
2018-01-24T10:52:04.036Z,405.00
2018-01-24T10:53:03.957Z,393.75
2018-01-24T10:54:03.925Z,382.50
2018-01-24T10:55:03.888Z,376.88
2018-01-24T10:56:03.851Z,371.25
2018-01-24T10:57:03.817Z,360.00
2018-01-24T10:58:03.780Z,354.38
2018-01-24T10:59:03.742Z,348.75
2018-01-24T11:00:03.722Z,337.50
2018-01-24T11:01:03.672Z,343.13
2018-01-24T11:02:03.634Z,331.88
2018-01-24T11:03:03.600Z,331.88
2018-01-24T11:04:03.561Z,315.00
2018-01-24T11:05:03.535Z,292.50
2018-01-24T11:06:03.490Z,275.63
2018-01-24T11:07:03.458Z,270.00
2018-01-24T11:08:03.416Z,264.38
2018-01-24T11:09:03.387Z,253.13
2018-01-24T11:10:03.356Z,247.50
2018-01-24T11:11:03.366Z,247.50
2018-01-24T11:12:03.276Z,247.50
2018-01-24T11:13:03.240Z,247.50
2018-01-24T11:14:03.231Z,253.13
2018-01-24T11:15:03.176Z,247.50
2018-01-24T11:16:03.159Z,236.25
2018-01-24T11:17:03.095Z,230.63
2018-01-24T11:18:03.060Z,225.00
2018-01-24T11:19:03.031Z,225.00
2018-01-24T11:20:02.988Z,213.75
2018-01-24T11:21:02.953Z,202.50
2018-01-24T11:22:02.917Z,196.88
2018-01-24T11:23:02.888Z,191.25
2018-01-24T11:24:02.848Z,202.50
2018-01-24T11:25:02.806Z,196.88
2018-01-24T11:26:02.773Z,196.88
2018-01-24T11:27:02.737Z,202.50
2018-01-24T11:28:02.704Z,191.25
2018-01-24T11:29:02.672Z,196.88
2018-01-24T11:30:02.637Z,208.13
2018-01-24T11:31:02.594Z,208.13
2018-01-24T11:32:02.554Z,196.88
2018-01-24T11:33:02.540Z,191.25
2018-01-24T11:34:02.498Z,185.63
2018-01-24T11:35:02.463Z,185.63
2018-01-24T11:36:02.416Z,185.63
2018-01-24T11:37:02.379Z,191.25
2018-01-24T11:38:02.353Z,196.88
2018-01-24T11:39:02.353Z,196.88
2018-01-24T11:40:02.294Z,196.88
2018-01-24T11:41:02.233Z,196.88
2018-01-24T11:42:02.208Z,191.25
2018-01-24T11:43:02.157Z,208.13
2018-01-24T11:44:02.123Z,230.63
2018-01-24T11:45:02.100Z,236.25
2018-01-24T11:46:02.077Z,241.88
2018-01-24T11:47:02.042Z,247.50
2018-01-24T11:48:01.977Z,253.13
2018-01-24T11:49:01.956Z,247.50
2018-01-24T11:50:01.926Z,241.88
2018-01-24T11:51:01.895Z,241.88
2018-01-24T11:52:01.844Z,241.88
2018-01-24T11:53:01.850Z,247.50
2018-01-24T11:54:01.791Z,253.13
2018-01-24T11:55:01.772Z,264.38
2018-01-24T11:56:01.804Z,264.38
2018-01-24T11:57:01.662Z,258.75
2018-01-24T11:58:01.645Z,264.38
2018-01-24T11:59:01.608Z,253.13
2018-01-24T12:00:01.580Z,253.13
2018-01-24T12:01:01.604Z,258.75
2018-01-24T12:02:01.488Z,270.00
2018-01-24T12:03:01.467Z,264.38
2018-01-24T12:04:01.412Z,258.75
2018-01-24T12:05:01.373Z,253.13
2018-01-24T12:06:01.336Z,253.13
2018-01-24T12:07:01.307Z,264.38
2018-01-24T12:08:01.315Z,281.25
2018-01-24T12:09:01.243Z,292.50
2018-01-24T12:10:01.190Z,292.50
2018-01-24T12:11:01.165Z,292.50
2018-01-24T12:12:01.128Z,292.50
2018-01-24T12:13:01.086Z,292.50
2018-01-24T12:14:01.045Z,292.50
2018-01-24T12:15:01.010Z,286.88
2018-01-24T12:16:00.989Z,275.63
2018-01-24T12:17:00.945Z,258.75
2018-01-24T12:18:00.908Z,258.75
2018-01-24T12:19:00.868Z,264.38
2018-01-24T12:20:00.831Z,264.38
2018-01-24T12:21:00.796Z,253.13
2018-01-24T12:22:00.761Z,230.63
2018-01-24T12:23:00.812Z,225.00
2018-01-24T12:24:00.688Z,230.63
2018-01-24T12:25:00.671Z,236.25
2018-01-24T12:26:00.618Z,225.00
2018-01-24T12:27:00.582Z,213.75
2018-01-24T12:28:00.570Z,208.13
2018-01-24T12:29:00.517Z,208.13
2018-01-24T12:30:00.478Z,202.50
2018-01-24T12:31:00.439Z,213.75
2018-01-24T12:32:00.406Z,241.88
2018-01-24T12:33:00.367Z,270.00
2018-01-24T12:34:00.340Z,286.88
2018-01-24T12:35:00.295Z,292.50
2018-01-24T12:36:00.262Z,292.50
2018-01-24T12:37:00.225Z,292.50
2018-01-24T12:38:00.191Z,286.88
2018-01-24T12:39:00.148Z,292.50
2018-01-24T12:40:00.122Z,298.13
2018-01-24T12:41:00.084Z,298.13
2018-01-24T12:42:00.043Z,303.75
2018-01-24T12:43:00.008Z,303.75
2018-01-24T12:43:59.977Z,298.13
2018-01-24T12:44:59.941Z,298.13
2018-01-24T12:45:59.897Z,303.75
2018-01-24T12:46:59.862Z,298.13
2018-01-24T12:47:59.836Z,298.13
2018-01-24T12:48:59.794Z,298.13
2018-01-24T12:49:59.782Z,298.13
2018-01-24T12:50:59.722Z,298.13
2018-01-24T12:51:59.704Z,286.88
2018-01-24T12:52:59.651Z,270.00
2018-01-24T12:53:59.610Z,270.00
2018-01-24T12:54:59.587Z,275.63
2018-01-24T12:55:59.540Z,275.63
2018-01-24T12:56:59.503Z,270.00